createdAt,value
2024-01-29T00:00:27.672Z,25.18
2024-01-29T00:01:27.788Z,25.19
2024-01-29T00:02:27.642Z,25.19
2024-01-29T00:03:27.704Z,25.18
2024-01-29T00:04:27.757Z,25.21
2024-01-29T00:05:27.620Z,25.21
2024-01-29T00:06:27.772Z,25.18
2024-01-29T00:07:27.703Z,25.21
2024-01-29T00:08:27.614Z,25.21
2024-01-29T00:09:27.691Z,25.23
2024-01-29T00:10:27.780Z,25.20
2024-01-29T00:11:27.812Z,25.17
2024-01-29T00:12:27.775Z,25.15
2024-01-29T00:13:27.716Z,25.18
2024-01-29T00:14:27.733Z,25.17
2024-01-29T00:15:27.777Z,25.18
2024-01-29T00:16:27.806Z,25.13
2024-01-29T00:17:27.848Z,25.15
2024-01-29T00:18:27.896Z,25.14
2024-01-29T00:19:27.945Z,25.15
2024-01-29T00:20:27.876Z,25.16
2024-01-29T00:21:27.897Z,25.15
2024-01-29T00:22:27.938Z,25.14
2024-01-29T00:23:27.957Z,25.15
2024-01-29T00:24:27.972Z,25.13
2024-01-29T00:25:28.004Z,25.12
2024-01-29T00:26:28.023Z,25.09
2024-01-29T00:27:28.044Z,25.12
2024-01-29T00:28:28.030Z,25.12
2024-01-29T00:29:28.124Z,25.13
2024-01-29T00:30:28.067Z,25.17
2024-01-29T00:31:28.045Z,25.13
2024-01-29T00:32:28.201Z,25.12
2024-01-29T00:33:28.279Z,25.16
2024-01-29T00:34:28.218Z,25.09
2024-01-29T00:35:28.185Z,25.13
2024-01-29T00:36:28.195Z,25.10
2024-01-29T00:37:28.192Z,25.15
2024-01-29T00:38:28.184Z,25.12
2024-01-29T00:39:28.271Z,25.11
2024-01-29T00:40:28.256Z,25.12
2024-01-29T00:41:29.161Z,25.11
2024-01-29T00:42:28.335Z,25.09
2024-01-29T00:43:28.324Z,25.10
2024-01-29T00:44:28.664Z,25.10
2024-01-29T00:45:28.429Z,25.09
2024-01-29T00:46:28.430Z,25.09
2024-01-29T00:47:28.434Z,25.09
2024-01-29T00:48:28.488Z,25.07
2024-01-29T00:49:28.557Z,25.13
2024-01-29T00:50:28.477Z,25.13
2024-01-29T00:51:28.510Z,25.08
2024-01-29T00:52:28.508Z,25.07
2024-01-29T00:53:28.510Z,25.06
2024-01-29T00:54:28.708Z,25.07
2024-01-29T00:55:28.595Z,25.08
2024-01-29T00:56:28.614Z,25.07
2024-01-29T00:57:28.645Z,25.08
2024-01-29T00:58:28.634Z,25.07
2024-01-29T00:59:28.672Z,25.07
2024-01-29T01:00:28.872Z,25.06
2024-01-29T01:01:28.780Z,25.10
2024-01-29T01:02:28.787Z,25.07
2024-01-29T01:03:28.842Z,25.05
2024-01-29T01:04:28.888Z,25.09
2024-01-29T01:05:28.854Z,25.07
2024-01-29T01:06:28.960Z,25.05
2024-01-29T01:07:28.881Z,25.05
2024-01-29T01:08:28.916Z,25.05
2024-01-29T01:09:28.960Z,25.06
2024-01-29T01:10:28.918Z,25.04
2024-01-29T01:11:28.936Z,25.06
2024-01-29T01:12:28.979Z,25.05
2024-01-29T01:13:28.961Z,25.03
2024-01-29T01:14:29.199Z,25.03
2024-01-29T01:15:29.041Z,25.06
2024-01-29T01:16:29.034Z,25.04
2024-01-29T01:17:29.130Z,25.04
2024-01-29T01:18:29.193Z,25.02
2024-01-29T01:19:29.205Z,25.04
2024-01-29T01:20:29.194Z,25.06
2024-01-29T01:21:29.194Z,25.06
2024-01-29T01:22:29.229Z,25.04
2024-01-29T01:23:29.250Z,25.04
2024-01-29T01:24:29.756Z,25.04
2024-01-29T01:25:29.312Z,25.02
2024-01-29T01:26:29.318Z,25.00
2024-01-29T01:27:29.383Z,25.00
2024-01-29T01:28:29.346Z,24.99
2024-01-29T01:29:29.379Z,25.04
2024-01-29T01:30:29.460Z,24.97
2024-01-29T01:31:29.425Z,24.96
2024-01-29T01:32:29.449Z,24.99
2024-01-29T01:33:29.525Z,24.95
2024-01-29T01:34:29.610Z,24.99
2024-01-29T01:35:29.520Z,24.97
2024-01-29T01:36:29.598Z,24.96
2024-01-29T01:37:29.609Z,24.99
2024-01-29T01:38:29.598Z,24.98
2024-01-29T01:39:29.726Z,25.02
2024-01-29T01:40:29.652Z,24.99
2024-01-29T01:41:29.647Z,24.99
2024-01-29T01:42:29.707Z,24.98
2024-01-29T01:43:29.738Z,24.99
2024-01-29T01:44:30.205Z,24.99
2024-01-29T01:45:29.879Z,24.99
2024-01-29T01:46:29.967Z,24.95
2024-01-29T01:47:29.838Z,24.94
2024-01-29T01:48:29.994Z,25.01
2024-01-29T01:49:29.968Z,24.97
2024-01-29T01:50:29.894Z,24.97
2024-01-29T01:51:29.954Z,24.97
2024-01-29T01:52:29.900Z,24.95
2024-01-29T01:53:29.923Z,24.94
2024-01-29T01:54:30.002Z,24.97
2024-01-29T01:55:29.982Z,24.92
2024-01-29T01:56:29.984Z,24.96
2024-01-29T01:57:30.046Z,24.95
2024-01-29T01:58:30.049Z,24.97
2024-01-29T01:59:30.100Z,24.96
2024-01-29T02:00:30.104Z,24.94
2024-01-29T02:01:30.240Z,25.00
2024-01-29T02:02:30.132Z,24.93
2024-01-29T02:03:30.192Z,24.92
2024-01-29T02:04:30.271Z,24.94
2024-01-29T02:05:30.224Z,24.94
2024-01-29T02:06:30.305Z,24.93
2024-01-29T02:07:30.412Z,24.89
2024-01-29T02:08:30.292Z,24.91
2024-01-29T02:09:30.360Z,24.87
2024-01-29T02:10:30.726Z,24.87
2024-01-29T02:11:30.307Z,24.89
2024-01-29T02:12:30.375Z,24.95
2024-01-29T02:13:30.421Z,24.93
2024-01-29T02:14:30.426Z,24.90
2024-01-29T02:15:30.488Z,24.91
2024-01-29T02:16:30.449Z,24.86
2024-01-29T02:17:30.534Z,24.91
2024-01-29T02:18:30.545Z,24.89
2024-01-29T02:19:30.605Z,24.94
2024-01-29T02:20:30.565Z,24.93
2024-01-29T02:21:30.583Z,24.93
2024-01-29T02:22:30.624Z,24.93
2024-01-29T02:23:30.657Z,24.88
2024-01-29T02:24:30.676Z,24.92
2024-01-29T02:25:30.667Z,24.88
2024-01-29T02:26:30.711Z,24.90
2024-01-29T02:27:30.757Z,24.90
2024-01-29T02:28:30.737Z,24.88
2024-01-29T02:29:30.750Z,24.89
2024-01-29T02:30:31.203Z,24.84
2024-01-29T02:31:30.847Z,24.86
2024-01-29T02:32:30.842Z,24.82
2024-01-29T02:33:30.955Z,24.82
2024-01-29T02:34:30.962Z,24.86
2024-01-29T02:35:30.894Z,24.88
2024-01-29T02:36:30.943Z,24.82
2024-01-29T02:37:30.970Z,24.82
2024-01-29T02:38:30.985Z,24.81
2024-01-29T02:39:31.116Z,24.84
2024-01-29T02:40:31.029Z,24.83
2024-01-29T02:41:33.210Z,24.83
2024-01-29T02:42:31.039Z,24.86
2024-01-29T02:43:31.015Z,24.84
2024-01-29T02:44:31.014Z,24.86
2024-01-29T02:45:31.051Z,24.87
2024-01-29T02:46:31.065Z,24.79
2024-01-29T02:47:31.108Z,24.81
2024-01-29T02:48:31.103Z,24.77
2024-01-29T02:49:31.091Z,24.80
2024-01-29T02:50:31.129Z,24.81
2024-01-29T02:51:31.087Z,24.80
2024-01-29T02:52:31.087Z,24.78
2024-01-29T02:53:31.090Z,24.79
2024-01-29T02:54:31.083Z,24.77
2024-01-29T02:55:31.078Z,24.80
2024-01-29T02:56:31.079Z,24.82
2024-01-29T02:57:31.136Z,24.83
2024-01-29T02:58:31.055Z,24.78
2024-01-29T02:59:31.067Z,24.80
2024-01-29T03:00:31.384Z,24.80
2024-01-29T03:01:31.143Z,24.79
2024-01-29T03:02:31.044Z,24.79
2024-01-29T03:03:31.126Z,24.80
2024-01-29T03:04:31.130Z,24.78
2024-01-29T03:05:31.270Z,24.79
2024-01-29T03:06:31.217Z,24.79
2024-01-29T03:07:31.095Z,24.78
2024-01-29T03:08:31.097Z,24.77
2024-01-29T03:09:31.101Z,24.76
2024-01-29T03:10:31.249Z,24.77
2024-01-29T03:11:31.072Z,24.76
2024-01-29T03:12:31.101Z,24.74
2024-01-29T03:13:31.085Z,24.80
2024-01-29T03:14:31.098Z,24.80
2024-01-29T03:15:31.162Z,24.77
2024-01-29T03:16:31.107Z,24.76
2024-01-29T03:17:31.219Z,24.76
2024-01-29T03:18:31.212Z,24.76
2024-01-29T03:19:31.163Z,24.75
2024-01-29T03:20:31.245Z,24.76
2024-01-29T03:21:31.124Z,24.71
2024-01-29T03:22:31.091Z,24.70
2024-01-29T03:23:31.136Z,24.73
2024-01-29T03:24:31.141Z,24.75
2024-01-29T03:25:31.269Z,24.72
2024-01-29T03:26:31.122Z,24.70
2024-01-29T03:27:31.120Z,24.68
2024-01-29T03:28:31.142Z,24.74
2024-01-29T03:29:31.108Z,24.77
2024-01-29T03:30:31.278Z,24.70
2024-01-29T03:31:31.110Z,24.74
2024-01-29T03:32:31.133Z,24.77
2024-01-29T03:33:31.173Z,24.80
2024-01-29T03:34:31.196Z,24.70
2024-01-29T03:35:31.122Z,24.72
2024-01-29T03:36:31.100Z,24.75
2024-01-29T03:37:31.099Z,24.73
2024-01-29T03:38:31.165Z,24.74
2024-01-29T03:39:31.123Z,24.73
2024-01-29T03:40:31.121Z,24.72
2024-01-29T03:41:33.231Z,24.72
2024-01-29T03:42:31.182Z,24.70
2024-01-29T03:43:31.118Z,24.69
2024-01-29T03:44:31.133Z,24.67
2024-01-29T03:45:31.265Z,24.71
2024-01-29T03:46:31.108Z,24.67
2024-01-29T03:47:31.173Z,24.71
2024-01-29T03:48:31.268Z,24.72
2024-01-29T03:49:31.181Z,24.75
2024-01-29T03:50:31.298Z,24.70
2024-01-29T03:51:31.219Z,24.70
2024-01-29T03:52:31.272Z,24.68
2024-01-29T03:53:31.211Z,24.65
2024-01-29T03:54:31.257Z,24.67
2024-01-29T03:55:31.843Z,24.68
2024-01-29T03:56:31.263Z,24.65
2024-01-29T03:57:31.303Z,24.66
2024-01-29T03:58:31.299Z,24.64
2024-01-29T03:59:31.314Z,24.64
2024-01-29T04:00:31.804Z,24.64
2024-01-29T04:01:31.475Z,24.62
2024-01-29T04:02:31.402Z,24.62
2024-01-29T04:03:31.443Z,24.65
2024-01-29T04:04:31.583Z,24.66
2024-01-29T04:05:31.529Z,24.64
2024-01-29T04:06:31.493Z,24.62
2024-01-29T04:07:31.534Z,24.61
2024-01-29T04:08:31.525Z,24.61
2024-01-29T04:09:31.550Z,24.60
2024-01-29T04:10:31.733Z,24.62
2024-01-29T04:11:31.589Z,24.63
2024-01-29T04:12:31.609Z,24.63
2024-01-29T04:13:31.636Z,24.64
2024-01-29T04:14:31.637Z,24.61
2024-01-29T04:15:31.734Z,24.58
2024-01-29T04:16:31.768Z,24.59
2024-01-29T04:17:31.762Z,24.60
2024-01-29T04:18:31.804Z,24.59
2024-01-29T04:19:31.901Z,24.59
2024-01-29T04:20:31.798Z,24.60
2024-01-29T04:21:31.838Z,24.56
2024-01-29T04:22:31.820Z,24.59
2024-01-29T04:23:31.854Z,24.58
2024-01-29T04:24:31.923Z,24.53
2024-01-29T04:25:31.902Z,24.61
2024-01-29T04:26:31.903Z,24.59
2024-01-29T04:27:31.918Z,24.59
2024-01-29T04:28:31.947Z,24.58
2024-01-29T04:29:31.970Z,24.60
2024-01-29T04:30:32.016Z,24.55
2024-01-29T04:31:32.033Z,24.55
2024-01-29T04:32:32.041Z,24.54
2024-01-29T04:33:39.565Z,24.65
2024-01-29T04:34:39.494Z,24.57
2024-01-29T04:35:39.472Z,24.64
2024-01-29T04:36:39.513Z,24.58
2024-01-29T04:37:39.494Z,24.55
2024-01-29T04:38:39.503Z,24.58
2024-01-29T04:39:39.475Z,24.58
2024-01-29T04:40:39.470Z,24.56
2024-01-29T04:41:39.480Z,24.54
2024-01-29T04:42:39.504Z,24.58
2024-01-29T04:43:39.482Z,24.57
2024-01-29T04:44:39.493Z,24.54
2024-01-29T04:45:39.522Z,24.52
2024-01-29T04:46:39.504Z,24.54
2024-01-29T04:47:39.504Z,24.53
2024-01-29T04:48:39.500Z,24.53
2024-01-29T04:49:39.954Z,24.53
2024-01-29T04:50:39.498Z,24.52
2024-01-29T04:51:39.525Z,24.50
2024-01-29T04:52:39.514Z,24.52
2024-01-29T04:53:39.510Z,24.56
2024-01-29T04:54:39.526Z,24.54
2024-01-29T04:55:39.513Z,24.52
2024-01-29T04:56:39.518Z,24.53
2024-01-29T04:57:39.588Z,24.53
2024-01-29T04:58:39.492Z,24.52
2024-01-29T04:59:39.505Z,24.56
2024-01-29T05:00:39.646Z,24.55
2024-01-29T05:01:39.664Z,24.55
2024-01-29T05:02:39.534Z,24.54
2024-01-29T05:03:39.587Z,24.59
2024-01-29T05:04:39.618Z,24.55
2024-01-29T05:05:39.571Z,24.57
2024-01-29T05:06:39.623Z,24.54
2024-01-29T05:07:39.567Z,24.65
2024-01-29T05:08:39.512Z,24.56
2024-01-29T05:09:39.530Z,24.52
2024-01-29T05:10:40.193Z,24.54
2024-01-29T05:11:39.519Z,24.55
2024-01-29T05:12:39.555Z,24.48
2024-01-29T05:13:39.556Z,24.48
2024-01-29T05:14:39.916Z,24.54
2024-01-29T05:15:39.622Z,24.50
2024-01-29T05:16:39.547Z,24.55
2024-01-29T05:17:39.642Z,24.50
2024-01-29T05:18:39.588Z,24.52
2024-01-29T05:19:39.603Z,24.54
2024-01-29T05:20:39.539Z,24.52
2024-01-29T05:21:39.562Z,24.52
2024-01-29T05:22:39.558Z,24.49
2024-01-29T05:23:39.530Z,24.47
2024-01-29T05:24:39.660Z,24.47
2024-01-29T05:25:39.552Z,24.48
2024-01-29T05:26:39.568Z,24.50
2024-01-29T05:27:39.578Z,24.46
2024-01-29T05:28:39.552Z,24.47
2024-01-29T05:29:39.558Z,24.44
2024-01-29T05:30:39.962Z,24.44
2024-01-29T05:31:39.555Z,24.45
2024-01-29T05:32:39.638Z,24.41
2024-01-29T05:33:39.615Z,24.44
2024-01-29T05:34:39.658Z,24.44
2024-01-29T05:35:39.579Z,24.50
2024-01-29T05:36:39.574Z,24.43
2024-01-29T05:37:39.563Z,24.45
2024-01-29T05:38:39.567Z,24.39
2024-01-29T05:39:39.718Z,24.36
2024-01-29T05:40:39.595Z,24.36
2024-01-29T05:41:39.581Z,24.44
2024-01-29T05:42:39.670Z,24.41
2024-01-29T05:43:39.598Z,24.39
2024-01-29T05:44:39.656Z,24.42
2024-01-29T05:45:39.952Z,24.39
2024-01-29T05:46:39.664Z,24.39
2024-01-29T05:47:39.773Z,24.40
2024-01-29T05:48:39.846Z,24.45
2024-01-29T05:49:39.772Z,24.42
2024-01-29T05:50:39.754Z,24.38
2024-01-29T05:51:39.863Z,24.38
2024-01-29T05:52:39.811Z,24.36
2024-01-29T05:53:39.833Z,24.33
2024-01-29T05:54:39.870Z,24.42
2024-01-29T05:55:39.865Z,24.35
2024-01-29T05:56:39.903Z,24.34
2024-01-29T05:57:40.019Z,24.39
2024-01-29T05:58:39.961Z,24.37
2024-01-29T05:59:40.007Z,24.43
2024-01-29T06:00:40.112Z,24.35
2024-01-29T06:01:40.201Z,24.32
2024-01-29T06:02:40.160Z,24.32
2024-01-29T06:03:40.137Z,24.36
2024-01-29T06:04:40.121Z,24.41
2024-01-29T06:05:40.261Z,24.41
2024-01-29T06:06:40.383Z,24.36
2024-01-29T06:07:40.341Z,24.33
2024-01-29T06:08:40.295Z,24.35
2024-01-29T06:09:40.369Z,24.32
2024-01-29T06:10:40.355Z,24.29
2024-01-29T06:11:40.354Z,24.26
2024-01-29T06:12:40.486Z,24.25
2024-01-29T06:13:40.436Z,24.37
2024-01-29T06:14:40.435Z,24.30
2024-01-29T06:15:41.003Z,24.52
2024-01-29T06:16:40.507Z,25.69
2024-01-29T06:17:40.630Z,25.25
2024-01-29T06:18:40.675Z,25.65
2024-01-29T06:19:53.800Z,26.00
2024-01-29T06:20:41.715Z,26.14
2024-01-29T06:21:40.597Z,26.08
2024-01-29T06:22:40.585Z,26.25
2024-01-29T06:23:40.727Z,26.25
2024-01-29T06:24:40.675Z,26.19
2024-01-29T06:25:40.615Z,26.18
2024-01-29T06:26:40.624Z,26.11
2024-01-29T06:27:40.660Z,26.14
2024-01-29T06:28:40.620Z,26.11
2024-01-29T06:29:40.613Z,26.11
2024-01-29T06:30:40.717Z,26.10
2024-01-29T06:31:40.642Z,26.01
2024-01-29T06:32:40.665Z,26.00
2024-01-29T06:33:40.668Z,26.01
2024-01-29T06:34:40.768Z,25.91
2024-01-29T06:35:40.989Z,26.00
2024-01-29T06:36:40.819Z,25.92
2024-01-29T06:37:40.793Z,25.89
2024-01-29T06:38:40.894Z,25.89
2024-01-29T06:39:40.860Z,25.85
2024-01-29T06:40:40.859Z,25.82
2024-01-29T06:41:40.928Z,25.79
2024-01-29T06:42:40.949Z,25.78
2024-01-29T06:43:40.952Z,25.86
2024-01-29T06:44:40.989Z,25.90
2024-01-29T06:45:41.508Z,25.95
2024-01-29T06:46:41.049Z,26.00
2024-01-29T06:47:41.065Z,26.06
2024-01-29T06:48:41.967Z,26.40
2024-01-29T06:49:41.219Z,26.73
2024-01-29T06:50:41.134Z,26.79
2024-01-29T06:51:41.244Z,26.75
2024-01-29T06:52:41.216Z,27.08
2024-01-29T06:53:41.236Z,27.47
2024-01-29T06:54:41.243Z,27.36
2024-01-29T06:55:41.449Z,27.40
2024-01-29T06:56:41.388Z,27.98
2024-01-29T06:57:41.419Z,27.91
2024-01-29T06:58:41.463Z,27.74
2024-01-29T06:59:41.546Z,27.71
2024-01-29T07:00:41.717Z,27.60
2024-01-29T07:01:41.802Z,27.49
2024-01-29T07:02:41.723Z,27.46
2024-01-29T07:03:41.812Z,27.34
2024-01-29T07:04:41.859Z,27.30
2024-01-29T07:05:42.102Z,27.26
2024-01-29T07:06:41.935Z,27.24
2024-01-29T07:07:41.963Z,27.16
2024-01-29T07:08:42.055Z,27.12
2024-01-29T07:09:42.116Z,27.11
2024-01-29T07:10:42.441Z,27.06
2024-01-29T07:11:42.181Z,26.97
2024-01-29T07:12:42.268Z,26.94
2024-01-29T07:13:42.292Z,26.89
2024-01-29T07:14:42.421Z,26.87
2024-01-29T07:15:42.421Z,26.82
2024-01-29T07:16:42.404Z,26.80
2024-01-29T07:17:42.563Z,26.77
2024-01-29T07:18:42.668Z,26.71
2024-01-29T07:19:42.771Z,26.77
2024-01-29T07:20:42.656Z,26.92
2024-01-29T07:21:42.742Z,26.92
2024-01-29T07:22:42.758Z,26.80
2024-01-29T07:23:42.807Z,26.71
2024-01-29T07:24:42.917Z,26.69
2024-01-29T07:25:42.921Z,26.64
2024-01-29T07:26:42.995Z,26.62
2024-01-29T07:27:43.088Z,26.57
2024-01-29T07:28:43.074Z,26.50
2024-01-29T07:29:43.117Z,26.46
2024-01-29T07:30:43.497Z,26.42
2024-01-29T07:31:43.231Z,26.40
2024-01-29T07:32:43.361Z,26.38
2024-01-29T07:33:43.353Z,26.36
2024-01-29T07:34:43.436Z,26.32
2024-01-29T07:35:43.515Z,26.31
2024-01-29T07:36:43.497Z,26.26
2024-01-29T07:37:43.524Z,26.25
2024-01-29T07:38:43.530Z,26.23
2024-01-29T07:39:43.648Z,26.19
2024-01-29T07:40:43.648Z,26.17
2024-01-29T07:41:43.716Z,26.13
2024-01-29T07:42:43.772Z,26.12
2024-01-29T07:43:43.894Z,26.09
2024-01-29T07:44:43.881Z,26.08
2024-01-29T07:45:44.013Z,26.05
2024-01-29T07:46:44.001Z,26.04
2024-01-29T07:47:44.137Z,26.02
2024-01-29T07:48:44.145Z,25.99
2024-01-29T07:49:44.291Z,25.97
2024-01-29T07:50:44.225Z,25.91
2024-01-29T07:51:44.281Z,25.93
2024-01-29T07:52:44.317Z,26.57
2024-01-29T07:53:44.354Z,26.47
2024-01-29T07:54:44.560Z,26.77
2024-01-29T07:55:44.418Z,26.93
2024-01-29T07:56:44.451Z,26.87
2024-01-29T07:57:44.492Z,26.89
2024-01-29T07:58:44.566Z,27.37
2024-01-29T07:59:44.605Z,27.63
2024-01-29T08:00:44.864Z,28.21
2024-01-29T08:01:44.738Z,28.29
2024-01-29T08:02:44.788Z,28.55
2024-01-29T08:03:46.161Z,28.68
2024-01-29T08:04:44.825Z,28.97
2024-01-29T08:05:44.842Z,29.25
2024-01-29T08:06:44.843Z,29.57
2024-01-29T08:07:44.850Z,29.76
2024-01-29T08:08:44.867Z,30.06
2024-01-29T08:09:44.902Z,30.11
2024-01-29T08:10:44.940Z,30.42
2024-01-29T08:11:44.976Z,30.46
2024-01-29T08:12:45.103Z,30.63
2024-01-29T08:13:45.111Z,30.64
2024-01-29T08:14:45.173Z,30.94
2024-01-29T08:15:45.236Z,31.04
2024-01-29T08:16:45.243Z,31.15
2024-01-29T08:17:45.370Z,31.70
2024-01-29T08:18:45.490Z,32.45
2024-01-29T08:19:45.528Z,33.64
2024-01-29T08:20:45.570Z,33.01
2024-01-29T08:21:45.436Z,33.14
2024-01-29T08:22:45.454Z,32.66
2024-01-29T08:23:45.485Z,33.08
2024-01-29T08:24:46.097Z,33.51
2024-01-29T08:25:45.550Z,32.80
2024-01-29T08:26:45.596Z,32.69
2024-01-29T08:27:45.635Z,32.83
2024-01-29T08:28:45.626Z,32.88
2024-01-29T08:29:45.674Z,32.85
2024-01-29T08:30:45.691Z,32.91
2024-01-29T08:31:46.197Z,33.10
2024-01-29T08:32:45.791Z,33.10
2024-01-29T08:33:45.885Z,32.98
2024-01-29T08:34:45.888Z,33.05
2024-01-29T08:35:45.838Z,33.48
2024-01-29T08:36:45.880Z,33.73
2024-01-29T08:37:45.845Z,33.78
2024-01-29T08:38:45.879Z,33.83
2024-01-29T08:39:45.956Z,33.97
2024-01-29T08:40:45.976Z,33.90
2024-01-29T08:41:46.032Z,33.98
2024-01-29T08:42:46.099Z,34.04
2024-01-29T08:43:46.091Z,34.08
2024-01-29T08:44:46.136Z,34.15
2024-01-29T08:45:46.525Z,34.20
2024-01-29T08:46:46.245Z,35.09
2024-01-29T08:47:46.309Z,35.27
2024-01-29T08:48:46.376Z,35.06
2024-01-29T08:49:46.367Z,35.04
2024-01-29T08:50:46.301Z,34.66
2024-01-29T08:51:46.541Z,34.38
2024-01-29T08:52:46.349Z,34.21
2024-01-29T08:53:46.430Z,33.90
2024-01-29T08:54:46.536Z,33.70
2024-01-29T08:55:47.216Z,33.57
2024-01-29T08:56:46.488Z,33.50
2024-01-29T08:57:46.568Z,33.33
2024-01-29T08:58:46.564Z,33.22
2024-01-29T08:59:46.610Z,33.12
2024-01-29T09:00:47.049Z,32.93
2024-01-29T09:01:46.750Z,32.81
2024-01-29T09:02:46.688Z,32.73
2024-01-29T09:03:46.867Z,32.65
2024-01-29T09:04:46.899Z,32.51
2024-01-29T09:05:46.910Z,32.43
2024-01-29T09:06:46.937Z,32.35
2024-01-29T09:07:46.978Z,32.25
2024-01-29T09:08:47.037Z,32.15
2024-01-29T09:09:47.103Z,32.08
2024-01-29T09:10:48.457Z,31.98
2024-01-29T09:11:47.520Z,31.89
2024-01-29T09:12:47.275Z,31.80
2024-01-29T09:13:47.279Z,31.72
2024-01-29T09:14:47.382Z,31.65
2024-01-29T09:15:47.531Z,31.60
2024-01-29T09:16:47.498Z,31.52
2024-01-29T09:17:47.588Z,31.45
2024-01-29T09:18:47.649Z,31.37
2024-01-29T09:19:47.664Z,31.29
2024-01-29T09:20:47.670Z,31.25
2024-01-29T09:21:47.713Z,31.12
2024-01-29T09:22:47.745Z,31.15
2024-01-29T09:23:47.738Z,31.11
2024-01-29T09:24:47.776Z,31.02
2024-01-29T09:25:47.815Z,30.91
2024-01-29T09:26:47.803Z,30.86
2024-01-29T09:27:47.838Z,30.82
2024-01-29T09:28:47.831Z,30.75
2024-01-29T09:29:47.839Z,30.71
2024-01-29T09:30:49.188Z,30.67
2024-01-29T09:31:47.945Z,30.60
2024-01-29T09:32:47.989Z,30.54
2024-01-29T09:33:48.084Z,30.46
2024-01-29T09:34:48.058Z,30.42
2024-01-29T09:35:47.993Z,30.37
2024-01-29T09:36:48.014Z,30.31
2024-01-29T09:37:48.055Z,30.28
2024-01-29T09:38:48.069Z,30.19
2024-01-29T09:39:48.174Z,30.13
2024-01-29T09:40:48.538Z,30.11
2024-01-29T09:41:48.156Z,30.08
2024-01-29T09:42:48.205Z,30.05
2024-01-29T09:43:48.275Z,30.02
2024-01-29T09:44:48.298Z,29.97
2024-01-29T09:45:48.384Z,29.94
2024-01-29T09:46:48.304Z,29.85
2024-01-29T09:47:48.363Z,29.79
2024-01-29T09:48:48.505Z,29.80
2024-01-29T09:49:48.449Z,29.74
2024-01-29T09:50:48.452Z,29.71
2024-01-29T09:51:48.554Z,29.66
2024-01-29T09:52:48.511Z,29.60
2024-01-29T09:53:48.560Z,29.57
2024-01-29T09:54:48.688Z,29.57
2024-01-29T09:55:48.659Z,29.53
2024-01-29T09:56:48.635Z,29.48
2024-01-29T09:57:48.767Z,29.45
2024-01-29T09:58:48.768Z,29.43
2024-01-29T09:59:48.767Z,29.42
2024-01-29T10:00:49.197Z,29.37
2024-01-29T10:01:49.066Z,29.32
2024-01-29T10:02:48.989Z,29.30
2024-01-29T10:03:49.046Z,29.24
2024-01-29T10:04:49.046Z,29.23
2024-01-29T10:05:49.054Z,29.21
2024-01-29T10:06:49.208Z,29.16
2024-01-29T10:07:49.200Z,29.16
2024-01-29T10:08:49.203Z,29.10
2024-01-29T10:09:49.204Z,29.08
2024-01-29T10:10:49.612Z,29.06
2024-01-29T10:11:49.313Z,29.05
2024-01-29T10:12:49.356Z,29.02
2024-01-29T10:13:49.383Z,28.98
2024-01-29T10:14:49.418Z,28.97
2024-01-29T10:15:49.503Z,28.93
2024-01-29T10:16:49.499Z,28.93
2024-01-29T10:17:49.526Z,28.89
2024-01-29T10:18:49.651Z,28.89
2024-01-29T10:19:49.763Z,28.88
2024-01-29T10:20:49.629Z,28.86
2024-01-29T10:21:49.801Z,28.85
2024-01-29T10:22:49.732Z,28.82
2024-01-29T10:23:50.519Z,28.84
2024-01-29T10:24:49.764Z,28.83
2024-01-29T10:25:49.805Z,28.83
2024-01-29T10:26:49.884Z,28.87
2024-01-29T10:27:49.941Z,28.93
2024-01-29T10:28:49.945Z,29.00
2024-01-29T10:29:49.986Z,29.10
2024-01-29T10:30:50.057Z,29.12
2024-01-29T10:31:50.063Z,29.29
2024-01-29T10:32:50.328Z,29.50
2024-01-29T10:33:50.237Z,29.34
2024-01-29T10:34:50.351Z,29.29
2024-01-29T10:35:50.377Z,29.24
2024-01-29T10:36:50.298Z,29.26
2024-01-29T10:37:50.298Z,29.29
2024-01-29T10:38:50.331Z,29.29
2024-01-29T10:39:58.910Z,29.31
2024-01-29T10:40:51.437Z,29.36
2024-01-29T10:41:50.388Z,29.85
2024-01-29T10:42:50.385Z,29.93
2024-01-29T10:43:50.395Z,30.49
2024-01-29T10:44:50.367Z,30.41
2024-01-29T10:45:50.399Z,30.42
2024-01-29T10:46:50.387Z,30.66
2024-01-29T10:47:50.646Z,30.97
2024-01-29T10:48:50.537Z,31.08
2024-01-29T10:49:50.482Z,31.19
2024-01-29T10:50:50.508Z,31.37
2024-01-29T10:51:50.436Z,31.62
2024-01-29T10:52:50.379Z,31.74
2024-01-29T10:53:50.430Z,31.77
2024-01-29T10:54:50.400Z,32.34
2024-01-29T10:55:50.556Z,32.61
2024-01-29T10:56:50.435Z,32.44
2024-01-29T10:57:50.481Z,32.54
2024-01-29T10:58:50.544Z,32.44
2024-01-29T10:59:50.575Z,32.34
2024-01-29T11:00:50.715Z,32.57
2024-01-29T11:02:34.049Z,32.62
2024-01-29T11:03:33.489Z,32.64
2024-01-29T11:04:36.159Z,32.71
2024-01-29T11:05:33.975Z,32.78
2024-01-29T11:06:33.488Z,32.86
2024-01-29T11:07:33.483Z,32.92
2024-01-29T11:08:33.499Z,33.09
2024-01-29T11:09:33.453Z,33.13
2024-01-29T11:10:33.476Z,33.21
2024-01-29T11:11:33.512Z,33.31
2024-01-29T11:12:33.482Z,33.36
2024-01-29T11:13:33.463Z,33.51
2024-01-29T11:14:33.451Z,33.64
2024-01-29T11:15:33.510Z,33.74
2024-01-29T11:16:34.274Z,33.85
2024-01-29T11:17:33.504Z,33.95
2024-01-29T11:18:33.558Z,33.98
2024-01-29T11:19:33.495Z,34.07
2024-01-29T11:20:34.433Z,34.15
2024-01-29T11:21:33.507Z,34.20
2024-01-29T11:22:33.474Z,34.29
2024-01-29T11:23:33.483Z,34.20
2024-01-29T11:24:33.475Z,34.26
2024-01-29T11:25:33.474Z,34.45
2024-01-29T11:26:33.448Z,34.50
2024-01-29T11:27:33.557Z,34.40
2024-01-29T11:28:33.559Z,34.47
2024-01-29T11:29:33.492Z,34.57
2024-01-29T11:30:33.534Z,34.52
2024-01-29T11:31:33.509Z,34.59
2024-01-29T11:32:33.527Z,34.72
2024-01-29T11:33:33.691Z,34.78
2024-01-29T11:34:33.566Z,34.89
2024-01-29T11:35:39.616Z,35.07
2024-01-29T11:36:34.505Z,35.05
2024-01-29T11:37:33.491Z,35.13
2024-01-29T11:38:33.504Z,35.48
2024-01-29T11:39:33.535Z,35.94
2024-01-29T11:40:33.959Z,35.78
2024-01-29T11:41:33.510Z,35.74
2024-01-29T11:42:33.480Z,36.03
2024-01-29T11:43:34.461Z,36.82
2024-01-29T11:44:33.457Z,36.94
2024-01-29T11:45:33.549Z,36.97
2024-01-29T11:46:33.513Z,36.92
2024-01-29T11:47:33.567Z,36.49
2024-01-29T11:48:33.696Z,36.44
2024-01-29T11:49:33.680Z,36.90
2024-01-29T11:50:33.674Z,37.10
2024-01-29T11:51:33.833Z,37.21
2024-01-29T11:52:33.794Z,37.11
2024-01-29T11:53:33.886Z,36.93
2024-01-29T11:54:34.005Z,36.87
2024-01-29T11:55:33.931Z,36.83
2024-01-29T11:56:33.975Z,36.73
2024-01-29T11:57:33.998Z,36.83
2024-01-29T11:58:34.075Z,36.89
2024-01-29T11:59:34.086Z,36.86
2024-01-29T12:00:34.090Z,36.94
2024-01-29T12:01:34.425Z,37.03
2024-01-29T12:02:34.128Z,37.14
2024-01-29T12:03:34.214Z,37.20
2024-01-29T12:04:34.315Z,37.31
2024-01-29T12:05:34.226Z,37.20
2024-01-29T12:06:34.367Z,37.39
2024-01-29T12:07:34.340Z,37.35
2024-01-29T12:08:34.354Z,37.56
2024-01-29T12:09:34.350Z,37.58
2024-01-29T12:10:34.461Z,37.74
2024-01-29T12:11:34.365Z,37.88
2024-01-29T12:12:34.451Z,37.94
2024-01-29T12:13:34.431Z,37.98
2024-01-29T12:14:34.451Z,37.98
2024-01-29T12:15:34.526Z,38.06
2024-01-29T12:16:34.523Z,38.18
2024-01-29T12:17:34.565Z,38.20
2024-01-29T12:18:34.692Z,38.49
2024-01-29T12:19:34.566Z,38.33
2024-01-29T12:20:34.598Z,38.48
2024-01-29T12:21:34.668Z,38.56
2024-01-29T12:22:34.652Z,38.51
2024-01-29T12:23:34.699Z,38.42
2024-01-29T12:24:34.744Z,38.42
2024-01-29T12:25:34.770Z,38.55
2024-01-29T12:26:34.780Z,38.55
2024-01-29T12:27:34.823Z,38.66
2024-01-29T12:28:34.800Z,38.87
2024-01-29T12:29:34.837Z,38.84
2024-01-29T12:30:34.903Z,38.68
2024-01-29T12:31:34.893Z,38.69
2024-01-29T12:32:34.885Z,38.89
2024-01-29T12:33:35.316Z,39.52
2024-01-29T12:34:35.001Z,39.75
2024-01-29T12:35:34.946Z,39.43
2024-01-29T12:36:35.022Z,39.39
2024-01-29T12:37:34.988Z,39.11
2024-01-29T12:38:35.057Z,38.97
2024-01-29T12:39:35.091Z,38.80
2024-01-29T12:40:35.075Z,38.59
2024-01-29T12:41:35.128Z,38.40
2024-01-29T12:42:35.180Z,38.32
2024-01-29T12:43:35.172Z,38.14
2024-01-29T12:44:35.217Z,37.99
2024-01-29T12:45:35.378Z,37.86
2024-01-29T12:46:35.411Z,37.66
2024-01-29T12:47:35.423Z,37.40
2024-01-29T12:48:35.618Z,37.21
2024-01-29T12:49:35.695Z,36.99
2024-01-29T12:50:35.731Z,36.83
2024-01-29T12:51:35.709Z,36.77
2024-01-29T12:52:35.709Z,36.70
2024-01-29T12:53:35.745Z,36.64